Time;durP1;ratioP1;P1;durP2;ratioP2;P2;SDS_P1;SDS_P2;PMS_P1;PMS_P2;Temp;Humidity;BMP_temperature;BMP_pressure;BME280_temperature;BME280_humidity;BME280_pressure;Samples;Min_cycle;Max_cycle;Signal;HPM_P1;HPM_P2
2023/10/23 00:00:58;;;;;;;2.08;1.38;;;;;;;12.99;90.97;100490.53;5084719;28;20050;-67
2023/10/23 00:03:24;;;;;;;2.25;1.55;;;;;;;12.95;90.67;100494.38;5111383;28;20048;-67
2023/10/23 00:05:50;;;;;;;1.52;1.15;;;;;;;12.92;90.84;100489.69;5111239;28;20057;-66
2023/10/23 00:08:17;;;;;;;2.10;1.30;;;;;;;12.92;90.92;100495.09;5092589;28;20047;-68
2023/10/23 00:10:44;;;;;;;2.75;1.33;;;;;;;12.83;91.06;100490.03;5109940;28;20043;-68
2023/10/23 00:13:11;;;;;;;2.00;1.58;;;;;;;12.80;91.38;100492.69;5088129;28;20561;-68
2023/10/23 00:15:37;;;;;;;1.92;1.60;;;;;;;12.76;91.21;100495.34;5074376;28;20035;-68
2023/10/23 00:18:05;;;;;;;2.63;1.23;;;;;;;12.76;91.02;100495.34;5091655;28;20046;-67
2023/10/23 00:20:30;;;;;;;1.80;1.38;;;;;;;12.80;90.54;100495.38;5108932;28;20055;-68
2023/10/23 00:22:56;;;;;;;1.98;1.17;;;;;;;12.70;90.74;100494.91;5092891;28;20455;-69
2023/10/23 00:25:21;;;;;;;2.75;1.92;;;;;;;12.64;91.27;100504.50;5089799;28;20019;-68
2023/10/23 00:27:47;;;;;;;4.90;1.52;;;;;;;12.64;91.25;100496.41;5111257;28;20114;-66
2023/10/23 00:30:12;;;;;;;1.83;1.40;;;;;;;12.60;91.43;100501.00;5090485;28;20105;-67
2023/10/23 00:32:38;;;;;;;1.60;1.42;;;;;;;12.61;91.31;100497.16;5107620;28;20023;-66
2023/10/23 00:35:05;;;;;;;1.60;1.38;;;;;;;12.56;91.08;100500.19;5087084;28;20077;-66
2023/10/23 00:37:30;;;;;;;3.03;1.13;;;;;;;12.54;91.52;100499.78;5090148;28;20093;-67
2023/10/23 00:39:56;;;;;;;1.40;1.30;;;;;;;12.58;90.83;100499.84;5110706;28;20024;-67
2023/10/23 00:42:22;;;;;;;3.08;1.35;;;;;;;12.52;90.96;100504.00;5091962;28;20474;-66
2023/10/23 00:44:47;;;;;;;2.13;1.42;;;;;;;12.57;91.03;100492.88;5093215;28;20031;-67
2023/10/23 00:47:13;;;;;;;1.40;1.17;;;;;;;12.47;91.31;100498.94;5089177;28;20023;-67
2023/10/23 00:49:41;;;;;;;2.72;1.40;;;;;;;12.44;91.78;100495.06;5110972;28;20035;-67
2023/10/23 00:52:06;;;;;;;2.13;1.65;;;;;;;12.43;91.89;100495.41;5109860;28;20038;-66
2023/10/23 00:54:32;;;;;;;2.00;1.27;;;;;;;12.42;91.66;100504.69;5092620;28;20031;-67
2023/10/23 00:56:58;;;;;;;1.35;1.25;;;;;;;12.42;91.44;100500.06;5110748;28;20429;-68
2023/10/23 00:59:24;;;;;;;1.83;1.40;;;;;;;12.44;91.16;100496.97;5092647;28;20184;-68
2023/10/23 01:01:50;;;;;;;1.70;1.48;;;;;;;12.39;91.17;100514.28;5106186;28;20080;-68
2023/10/23 01:04:16;;;;;;;2.22;1.38;;;;;;;12.30;91.03;100505.72;5110272;28;20420;-68
2023/10/23 01:06:41;;;;;;;3.28;1.30;;;;;;;12.32;90.99;100508.81;5106658;28;20108;-68
2023/10/23 01:09:07;;;;;;;2.05;1.65;;;;;;;12.29;91.25;100498.75;5087746;28;20054;-68
2023/10/23 01:11:33;;;;;;;1.65;1.40;;;;;;;12.30;91.10;100503.00;5092125;28;20028;-68
2023/10/23 01:14:01;;;;;;;2.20;1.60;;;;;;;12.18;91.21;100500.56;5079180;28;20028;-67
2023/10/23 01:16:26;;;;;;;1.90;1.50;;;;;;;12.24;90.58;100501.00;5092510;28;20393;-68
2023/10/23 01:18:52;;;;;;;2.45;1.73;;;;;;;12.25;90.05;100508.72;5097629;28;20118;-68
2023/10/23 01:21:17;;;;;;;1.63;1.30;;;;;;;12.26;89.82;100512.22;5098554;28;20559;-67
2023/10/23 01:23:45;;;;;;;2.80;1.63;;;;;;;12.14;90.37;100515.94;5117675;28;20031;-67
2023/10/23 01:26:11;;;;;;;1.90;1.40;;;;;;;12.14;90.02;100512.44;5092708;28;20059;-67
2023/10/23 01:28:39;;;;;;;1.58;1.40;;;;;;;12.05;90.77;100511.97;5096697;28;20119;-67
2023/10/23 01:31:04;;;;;;;1.92;1.20;;;;;;;12.08;90.75;100517.41;5113660;28;20110;-68
2023/10/23 01:33:30;;;;;;;1.75;1.58;;;;;;;12.10;90.25;100508.97;5117534;28;20050;-67
2023/10/23 01:35:55;;;;;;;1.52;1.42;;;;;;;12.06;90.48;100519.69;5117451;28;20468;-67
2023/10/23 01:38:20;;;;;;;2.05;1.63;;;;;;;12.10;90.00;100520.50;5098363;28;20046;-67
2023/10/23 01:40:46;;;;;;;2.05;1.40;;;;;;;12.04;90.64;100521.97;5098822;28;20031;-66
2023/10/23 01:43:12;;;;;;;1.95;1.40;;;;;;;11.98;90.80;100531.53;5117512;27;20059;-66
2023/10/23 01:45:37;;;;;;;2.85;1.70;;;;;;;12.01;90.60;100527.34;5116475;28;20027;-67
2023/10/23 01:48:03;;;;;;;1.48;1.10;;;;;;;11.97;90.31;100530.00;5117392;28;20048;-67
2023/10/23 01:50:28;;;;;;;1.77;1.52;;;;;;;11.93;90.62;100534.56;5116871;28;20121;-67
2023/10/23 01:52:54;;;;;;;2.55;1.88;;;;;;;11.87;90.78;100530.63;5117168;28;20115;-67
2023/10/23 01:55:19;;;;;;;2.35;1.60;;;;;;;11.88;90.70;100524.13;5096189;28;20453;-68
2023/10/23 01:57:47;;;;;;;7.10;1.75;;;;;;;11.92;90.64;100533.03;5096998;28;20290;-70
2023/10/23 02:00:13;;;;;;;2.00;1.80;;;;;;;11.94;90.58;100533.44;5092225;28;20119;-67
2023/10/23 02:02:40;;;;;;;2.28;1.42;;;;;;;11.85;90.84;100532.13;5098353;28;20124;-67
2023/10/23 02:05:06;;;;;;;4.70;2.08;;;;;;;11.91;91.48;100536.06;5098504;28;20051;-67
2023/10/23 02:07:31;;;;;;;2.90;1.73;;;;;;;11.94;91.19;100532.66;5096421;28;20192;-67
2023/10/23 02:10:00;;;;;;;2.92;1.88;;;;;;;11.86;91.60;100534.50;5116288;28;20038;-68
2023/10/23 02:12:26;;;;;;;2.45;2.03;;;;;;;11.88;92.01;100537.59;5116716;28;20035;-67
2023/10/23 02:14:52;;;;;;;2.25;1.80;;;;;;;11.88;92.26;100547.63;5081575;28;20031;-67
2023/10/23 02:17:19;;;;;;;2.50;1.73;;;;;;;11.84;92.56;100539.47;5092402;28;20023;-67
2023/10/23 02:19:45;;;;;;;2.33;1.67;;;;;;;11.90;92.43;100531.84;5096088;27;20039;-67
2023/10/23 02:22:10;;;;;;;2.65;1.60;;;;;;;11.94;91.70;100538.06;5094554;28;20063;-67
2023/10/23 02:24:36;;;;;;;2.35;1.60;;;;;;;11.90;91.72;100535.31;5096514;28;20031;-67
2023/10/23 02:27:02;;;;;;;2.45;1.63;;;;;;;11.94;91.17;100544.25;5094046;28;20093;-68
2023/10/23 02:29:28;;;;;;;2.83;1.90;;;;;;;11.89;91.54;100551.84;5093544;28;20131;-68
2023/10/23 02:31:54;;;;;;;3.40;1.88;;;;;;;11.86;91.88;100545.28;5110959;28;20103;-67
2023/10/23 02:34:19;;;;;;;2.03;1.67;;;;;;;11.84;91.74;100555.66;5110294;28;20393;-67
2023/10/23 02:36:46;;;;;;;2.10;1.77;;;;;;;11.88;91.41;100559.19;5104676;27;20036;-66
2023/10/23 02:39:11;;;;;;;2.63;2.30;;;;;;;11.88;91.64;100555.72;5110754;27;20030;-67
2023/10/23 02:41:37;;;;;;;3.72;2.13;;;;;;;11.84;91.76;100555.66;5111646;28;20036;-66
2023/10/23 02:44:07;;;;;;;5.40;2.35;;;;;;;11.82;91.96;100554.47;5112359;27;20036;-66
2023/10/23 02:46:38;;;;;;;6.55;2.00;;;;;;;11.82;92.10;100555.25;5107032;27;20044;-68
2023/10/23 02:49:04;;;;;;;4.03;2.10;;;;;;;11.79;92.16;100556.75;5109760;27;20834;-66
2023/10/23 02:51:30;;;;;;;2.67;1.83;;;;;;;11.83;91.83;100558.75;5108773;27;20131;-66
2023/10/23 02:53:56;;;;;;;2.92;1.45;;;;;;;11.83;91.49;100562.19;5095077;27;20594;-66
2023/10/23 02:56:21;;;;;;;4.15;2.33;;;;;;;11.79;91.36;100564.06;5090254;28;20032;-66
2023/10/23 02:58:47;;;;;;;2.17;1.48;;;;;;;11.79;91.24;100564.06;5090612;28;20675;-67
2023/10/23 03:01:20;;;;;;;2.22;1.65;;;;;;;11.75;91.59;100563.22;5112067;28;20036;-66
2023/10/23 03:03:49;;;;;;;3.17;1.88;;;;;;;11.74;90.95;100561.69;5103282;28;20035;-66
2023/10/23 03:06:14;;;;;;;4.18;2.25;;;;;;;11.72;90.91;100563.97;5093260;28;20035;-67
2023/10/23 03:08:40;;;;;;;3.13;2.03;;;;;;;11.68;91.15;100572.03;5111810;28;20373;-67
2023/10/23 03:11:05;;;;;;;2.42;1.75;;;;;;;11.70;90.31;100571.66;5112292;28;20031;-67
2023/10/23 03:13:32;;;;;;;1.95;1.52;;;;;;;11.68;90.71;100574.72;5112516;28;20020;-67
2023/10/23 03:15:57;;;;;;;3.75;2.20;;;;;;;11.69;90.39;100580.91;5112849;28;20456;-67
2023/10/23 03:18:26;;;;;;;2.25;1.55;;;;;;;11.68;89.99;100590.13;5112894;28;20028;-67
2023/10/23 03:20:52;;;;;;;2.05;1.58;;;;;;;11.64;89.83;100590.03;5093453;28;20063;-68
2023/10/23 03:23:17;;;;;;;2.53;1.63;;;;;;;11.58;90.50;100588.78;5094940;28;20051;-67
2023/10/23 03:25:43;;;;;;;1.95;1.50;;;;;;;11.64;89.96;100583.84;5094349;28;20032;-67
2023/10/23 03:28:09;;;;;;;2.90;1.92;;;;;;;11.50;90.49;100592.50;5094602;28;20035;-68
2023/10/23 03:30:34;;;;;;;5.50;2.35;;;;;;;11.52;90.81;100594.84;5109637;28;20039;-67
2023/10/23 03:33:00;;;;;;;4.28;2.10;;;;;;;11.49;91.11;100596.38;5071107;28;20032;-68
2023/10/23 03:35:25;;;;;;;2.35;1.83;;;;;;;11.50;91.15;100597.91;5090065;28;20048;-67
2023/10/23 03:37:51;;;;;;;3.85;2.03;;;;;;;11.53;90.36;100591.03;5107521;28;20031;-67
2023/10/23 03:40:18;;;;;;;3.47;2.28;;;;;;;11.54;90.75;100592.56;5108422;28;20034;-67
2023/10/23 03:42:44;;;;;;;3.05;2.13;;;;;;;11.43;91.29;100591.63;5093984;28;20100;-68
2023/10/23 03:45:10;;;;;;;2.50;2.00;;;;;;;11.45;91.50;100592.03;5111778;28;20023;-67
2023/10/23 03:47:35;;;;;;;2.67;1.95;;;;;;;11.47;90.81;100587.84;5093771;28;20039;-67
2023/10/23 03:50:01;;;;;;;2.58;1.98;;;;;;;11.46;90.58;100593.59;5110389;28;20464;-68
2023/10/23 03:52:26;;;;;;;3.38;2.17;;;;;;;11.39;90.80;100586.19;5077379;28;20042;-66
2023/10/23 03:54:55;;;;;;;3.88;2.30;;;;;;;11.33;90.94;100595.72;5109444;28;20015;-65
2023/10/23 03:57:20;;;;;;;6.15;2.30;;;;;;;11.35;90.67;100595.34;5112326;28;20804;-67
2023/10/23 03:59:45;;;;;;;6.15;2.28;;;;;;;11.29;90.89;100594.09;5109516;28;20130;-69
2023/10/23 04:02:11;;;;;;;2.50;1.75;;;;;;;11.27;90.84;100601.75;5086186;28;20031;-66
2023/10/23 04:04:36;;;;;;;3.50;2.50;;;;;;;11.32;90.89;100601.47;5110762;28;20077;-67
2023/10/23 04:07:02;;;;;;;3.25;2.08;;;;;;;11.33;90.48;100600.31;5091938;28;20081;-67
2023/10/23 04:09:31;;;;;;;3.60;2.20;;;;;;;11.32;90.37;100606.88;5110997;28;20047;-67
2023/10/23 04:11:56;;;;;;;3.60;1.98;;;;;;;11.24;90.79;100607.88;5108282;28;20031;-66
2023/10/23 04:14:22;;;;;;;4.32;2.55;;;;;;;11.25;90.29;100606.72;5111989;28;20073;-66
2023/10/23 04:16:47;;;;;;;2.22;1.80;;;;;;;11.20;90.90;100607.81;5092772;28;20450;-67
2023/10/23 04:19:13;;;;;;;4.00;2.17;;;;;;;11.19;91.17;100610.88;5111479;28;20053;-67
2023/10/23 04:21:41;;;;;;;5.18;2.40;;;;;;;11.14;91.47;100603.09;5111035;28;20047;-67
2023/10/23 04:24:09;;;;;;;3.88;2.60;;;;;;;11.14;91.55;100603.88;5105628;28;20504;-66
2023/10/23 04:26:34;;;;;;;3.90;2.35;;;;;;;11.11;91.94;100606.50;5093039;28;20035;-67
2023/10/23 04:29:00;;;;;;;3.63;2.10;;;;;;;11.12;92.03;100606.16;5110906;28;20038;-68
2023/10/23 04:31:25;;;;;;;4.28;2.88;;;;;;;11.12;92.27;100608.84;5092055;28;20016;-66
2023/10/23 04:33:51;;;;;;;5.22;3.00;;;;;;;11.11;92.56;100609.97;5093440;28;20035;-66
2023/10/23 04:36:16;;;;;;;4.25;2.38;;;;;;;11.09;93.03;100606.09;5092607;28;20511;-66
2023/10/23 04:38:41;;;;;;;6.88;2.22;;;;;;;11.11;92.96;100612.66;5111637;28;20532;-67
2023/10/23 04:41:07;;;;;;;5.47;2.70;;;;;;;11.12;92.76;100606.16;5092098;28;20031;-67
2023/10/23 04:43:34;;;;;;;4.68;2.38;;;;;;;11.06;92.96;100607.56;5110373;28;20065;-67
2023/10/23 04:45:59;;;;;;;4.40;2.47;;;;;;;11.10;92.69;100608.41;5092846;28;20727;-67
2023/10/23 04:48:25;;;;;;;4.40;2.70;;;;;;;11.13;92.71;100606.94;5110633;28;20130;-67
2023/10/23 04:50:50;;;;;;;4.78;2.58;;;;;;;11.17;92.64;100610.47;5107529;28;20089;-67
2023/10/23 04:53:16;;;;;;;4.88;2.42;;;;;;;11.15;92.70;100607.34;5093137;28;20043;-66
2023/10/23 04:55:41;;;;;;;4.30;2.53;;;;;;;11.14;92.98;100613.88;5089985;28;20019;-66
2023/10/23 04:58:08;;;;;;;3.45;2.60;;;;;;;11.19;92.88;100613.59;5091493;28;20554;-67
2023/10/23 05:00:35;;;;;;;3.83;3.05;;;;;;;11.19;93.10;100611.66;5107611;28;20095;-67
2023/10/23 05:03:03;;;;;;;5.32;2.60;;;;;;;11.21;93.25;100608.59;5103091;28;20042;-67
2023/10/23 05:05:29;;;;;;;5.45;2.92;;;;;;;11.12;93.51;100608.06;5110240;28;20388;-68
2023/10/23 05:07:54;;;;;;;3.38;2.40;;;;;;;11.14;93.08;100613.88;5110902;28;20479;-67
2023/10/23 05:10:20;;;;;;;4.13;2.38;;;;;;;11.04;92.73;100609.06;5109878;28;20110;-68
2023/10/23 05:12:49;;;;;;;4.57;2.75;;;;;;;11.06;92.73;100618.34;5110965;28;20043;-67
2023/10/23 05:15:15;;;;;;;4.57;3.25;;;;;;;11.17;91.93;100615.88;5110894;28;20024;-66
2023/10/23 05:17:44;;;;;;;5.03;2.92;;;;;;;11.12;92.26;100626.91;5111052;28;20027;-66
2023/10/23 05:20:10;;;;;;;4.45;2.85;;;;;;;11.05;92.40;100632.97;5109874;28;20066;-66
2023/10/23 05:22:35;;;;;;;4.35;2.35;;;;;;;11.04;92.85;100639.50;5110536;28;20298;-68
2023/10/23 05:25:01;;;;;;;6.03;2.92;;;;;;;11.03;92.75;100639.84;5087069;28;20021;-67
2023/10/23 05:27:26;;;;;;;5.40;2.63;;;;;;;11.07;92.68;100638.00;5110413;28;20077;-66
2023/10/23 05:29:52;;;;;;;4.22;2.65;;;;;;;11.10;92.97;100646.16;5088777;28;20024;-66
2023/10/23 05:32:17;;;;;;;4.13;2.50;;;;;;;11.05;93.25;100651.06;5090092;28;20503;-66
2023/10/23 05:34:44;;;;;;;5.63;2.90;;;;;;;11.13;93.32;100644.66;5082909;28;20039;-66
2023/10/23 05:37:10;;;;;;;5.68;2.95;;;;;;;11.12;93.73;100654.66;5110320;28;20062;-66
2023/10/23 05:39:38;;;;;;;6.38;3.47;;;;;;;11.08;94.16;100651.13;5109645;28;20059;-66
2023/10/23 05:42:04;;;;;;;7.70;3.42;;;;;;;11.12;94.26;100651.97;5077968;28;20024;-66
2023/10/23 05:44:30;;;;;;;5.75;3.00;;;;;;;11.13;94.08;100647.34;5109909;28;20032;-66
2023/10/23 05:46:58;;;;;;;4.53;2.63;;;;;;;11.08;94.13;100650.34;5110753;28;20527;-67
2023/10/23 05:49:23;;;;;;;7.25;2.90;;;;;;;11.03;94.47;100650.63;5108769;28;20425;-68
2023/10/23 05:51:49;;;;;;;4.57;2.85;;;;;;;11.00;94.58;100641.34;5089895;28;20036;-68
2023/10/23 05:54:16;;;;;;;6.22;3.10;;;;;;;11.02;94.93;100655.25;5108654;28;20034;-68
2023/10/23 05:56:42;;;;;;;5.65;3.30;;;;;;;11.02;94.94;100646.38;5109865;28;20035;-67
2023/10/23 05:59:07;;;;;;;5.45;3.17;;;;;;;10.92;95.44;100666.59;5107462;28;20039;-67
2023/10/23 06:01:33;;;;;;;4.13;2.90;;;;;;;10.97;95.09;100669.00;5109868;28;20042;-67
2023/10/23 06:03:59;;;;;;;5.65;2.83;;;;;;;10.90;94.60;100666.94;5094017;28;20118;-67
2023/10/23 06:06:24;;;;;;;4.03;2.65;;;;;;;10.95;94.01;100670.50;5114025;28;20114;-67
2023/10/23 06:08:50;;;;;;;5.97;2.97;;;;;;;10.95;93.81;100670.50;5113061;28;20609;-67
2023/10/23 06:11:15;;;;;;;5.30;2.85;;;;;;;10.95;92.94;100679.38;5113788;28;20503;-68
2023/10/23 06:13:41;;;;;;;4.05;2.35;;;;;;;10.95;93.33;100681.28;5114206;28;20020;-67
2023/10/23 06:16:07;;;;;;;4.45;2.50;;;;;;;10.92;93.61;100698.16;5113802;28;20526;-67
2023/10/23 06:18:34;;;;;;;5.68;3.00;;;;;;;10.93;94.04;100694.31;5111560;28;20058;-67
2023/10/23 06:21:03;;;;;;;6.25;3.15;;;;;;;10.92;93.70;100698.91;5108598;28;20020;-68
2023/10/23 06:23:33;;;;;;;5.35;3.33;;;;;;;10.99;93.32;100691.00;5107649;28;20031;-68
2023/10/23 06:25:59;;;;;;;4.55;2.80;;;;;;;11.04;93.61;100687.22;5108088;28;20064;-67
2023/10/23 06:28:25;;;;;;;5.28;2.75;;;;;;;11.02;93.77;100689.47;5111942;28;20027;-68
2023/10/23 06:30:51;;;;;;;5.40;2.38;;;;;;;11.07;93.49;100700.75;5111805;28;20035;-67
2023/10/23 06:33:16;;;;;;;4.70;2.22;;;;;;;10.96;93.43;100707.06;5108114;28;20028;-67
2023/10/23 06:35:42;;;;;;;10.43;3.13;;;;;;;10.97;93.50;100706.75;5113541;28;20404;-68
2023/10/23 06:38:07;;;;;;;4.95;2.60;;;;;;;10.96;94.10;100712.47;5095753;28;20035;-67
2023/10/23 06:40:32;;;;;;;3.55;2.30;;;;;;;10.94;94.56;100706.66;5113170;28;20039;-68
2023/10/23 06:42:58;;;;;;;5.47;2.97;;;;;;;11.00;94.26;100707.91;5113420;28;20011;-67
2023/10/23 06:45:23;;;;;;;5.20;2.72;;;;;;;11.06;93.90;100701.91;5113392;28;20404;-67
2023/10/23 06:47:49;;;;;;;4.63;2.38;;;;;;;11.08;93.91;100706.91;5109279;28;20031;-68
2023/10/23 06:50:15;;;;;;;4.55;2.80;;;;;;;10.96;93.71;100712.47;5110185;28;20093;-67
2023/10/23 06:52:42;;;;;;;3.65;2.50;;;;;;;10.94;94.62;100712.06;5093550;28;20038;-67
2023/10/23 06:55:08;;;;;;;5.20;2.63;;;;;;;10.83;94.36;100725.31;5112303;28;20011;-66
2023/10/23 06:57:34;;;;;;;3.88;2.50;;;;;;;10.89;94.96;100724.69;5094263;28;20525;-67
2023/10/23 06:59:59;;;;;;;5.97;2.67;;;;;;;10.95;95.23;100721.69;5112333;28;20023;-67
2023/10/23 07:02:24;;;;;;;3.83;2.22;;;;;;;10.91;94.29;100727.00;5113011;28;20412;-67
2023/10/23 07:04:50;;;;;;;4.20;2.47;;;;;;;10.79;95.28;100719.06;5113001;28;20548;-67
2023/10/23 07:07:15;;;;;;;3.65;2.40;;;;;;;10.84;95.76;100727.63;5094253;28;20039;-66
2023/10/23 07:09:41;;;;;;;4.63;2.60;;;;;;;10.80;96.07;100715.25;5111568;28;20026;-67
2023/10/23 07:12:07;;;;;;;3.20;2.25;;;;;;;10.88;96.09;100715.03;5112829;28;20047;-66
2023/10/23 07:14:32;;;;;;;4.35;2.25;;;;;;;11.02;94.94;100716.44;5112293;28;20007;-66
2023/10/23 07:16:58;;;;;;;3.45;2.20;;;;;;;11.05;94.58;100721.91;5094374;28;20049;-67
2023/10/23 07:19:27;;;;;;;4.28;2.88;;;;;;;11.07;94.65;100721.53;5109333;28;20488;-67
2023/10/23 07:21:52;;;;;;;2.80;2.10;;;;;;;11.11;94.54;100725.09;5106574;28;20059;-68
2023/10/23 07:24:18;;;;;;;3.72;2.30;;;;;;;11.13;94.57;100730.91;5112056;28;20059;-67
2023/10/23 07:26:43;;;;;;;3.88;2.47;;;;;;;11.11;94.95;100733.19;5088350;28;20035;-67
2023/10/23 07:29:09;;;;;;;5.10;2.53;;;;;;;11.16;95.25;100730.19;5109170;28;20055;-66
2023/10/23 07:31:39;;;;;;;4.53;2.13;;;;;;;11.29;95.04;100742.38;5093361;28;20385;-66
2023/10/23 07:34:04;;;;;;;4.05;2.78;;;;;;;11.30;94.38;100733.16;5092312;28;20070;-67
2023/10/23 07:36:30;;;;;;;4.38;2.35;;;;;;;11.36;94.79;100737.13;5093703;28;20055;-66
2023/10/23 07:38:55;;;;;;;3.35;2.13;;;;;;;11.37;94.54;100744.06;5112256;28;20060;-66
2023/10/23 07:41:24;;;;;;;2.65;1.90;;;;;;;11.44;94.66;100752.28;5083616;28;20091;-66
2023/10/23 07:43:49;;;;;;;4.93;2.80;;;;;;;11.49;94.80;100746.59;5109253;28;20119;-67
2023/10/23 07:46:15;;;;;;;6.22;2.78;;;;;;;11.55;94.95;100758.66;5111839;28;20031;-66
2023/10/23 07:48:40;;;;;;;7.03;2.97;;;;;;;11.58;94.83;100766.81;5112222;28;20045;-69
2023/10/23 07:51:06;;;;;;;6.60;3.10;;;;;;;11.55;94.54;100759.44;5108577;28;20031;-68
2023/10/23 07:53:32;;;;;;;4.60;2.72;;;;;;;11.64;94.55;100761.88;5091824;28;20028;-69
2023/10/23 07:55:58;;;;;;;5.25;2.78;;;;;;;11.65;94.59;100758.84;5108187;28;20098;-69
2023/10/23 07:58:24;;;;;;;4.22;2.35;;;;;;;11.66;95.20;100765.03;5111513;28;20031;-68
2023/10/23 08:00:53;;;;;;;5.00;2.20;;;;;;;11.80;95.03;100768.00;5102313;28;20076;-68
2023/10/23 08:03:19;;;;;;;7.28;2.95;;;;;;;11.84;94.39;100768.84;5108246;28;20055;-68
2023/10/23 08:05:46;;;;;;;5.70;3.17;;;;;;;11.89;94.36;100763.13;5111233;28;20588;-67
2023/10/23 08:08:12;;;;;;;6.13;2.67;;;;;;;11.86;94.59;100760.38;5093194;28;20035;-67
2023/10/23 08:10:37;;;;;;;3.97;2.47;;;;;;;11.92;94.43;100762.41;5110876;28;20031;-68
2023/10/23 08:13:03;;;;;;;6.78;3.20;;;;;;;12.00;94.47;100774.09;5111588;28;20088;-67
2023/10/23 08:15:29;;;;;;;6.50;3.03;;;;;;;12.02;93.98;100772.59;5111438;28;20130;-69
2023/10/23 08:17:54;;;;;;;4.53;2.65;;;;;;;12.04;94.81;100767.59;5111408;28;20036;-68
2023/10/23 08:20:22;;;;;;;5.18;2.67;;;;;;;12.10;95.30;100757.31;5075809;28;20039;-68
2023/10/23 08:22:48;;;;;;;5.72;3.25;;;;;;;12.24;94.63;100766.38;5091777;28;20455;-67
2023/10/23 08:25:14;;;;;;;8.23;3.42;;;;;;;12.24;93.97;100766.38;5107491;28;20027;-68
2023/10/23 08:27:39;;;;;;;6.68;3.10;;;;;;;12.27;93.91;100767.59;5105100;28;20702;-68
2023/10/23 08:30:06;;;;;;;8.65;3.78;;;;;;;12.37;94.66;100783.16;5090967;28;20156;-68
2023/10/23 08:32:35;;;;;;;7.03;3.60;;;;;;;12.43;93.81;100777.09;5090303;28;20020;-68
2023/10/23 08:35:00;;;;;;;6.15;3.05;;;;;;;12.42;93.55;100775.56;5111716;28;20103;-67
2023/10/23 08:37:26;;;;;;;6.25;3.00;;;;;;;12.48;93.80;100774.09;5093081;28;20119;-67
2023/10/23 08:39:51;;;;;;;8.55;3.47;;;;;;;12.53;93.59;100779.19;5110013;28;20068;-67
2023/10/23 08:42:16;;;;;;;7.72;3.85;;;;;;;12.63;93.35;100773.16;5111046;28;20036;-68
2023/10/23 08:44:43;;;;;;;6.10;3.17;;;;;;;12.58;93.12;100773.44;5093049;28;20019;-68
2023/10/23 08:47:09;;;;;;;5.25;3.05;;;;;;;12.62;93.30;100779.69;5092623;28;20492;-67
2023/10/23 08:49:34;;;;;;;7.43;3.88;;;;;;;12.68;93.87;100778.22;5105468;28;20027;-68
2023/10/23 08:52:03;;;;;;;7.13;3.17;;;;;;;12.79;93.28;100772.97;5111058;28;20035;-67
2023/10/23 08:54:29;;;;;;;6.85;3.30;;;;;;;12.80;93.10;100782.63;5111210;28;20418;-69
2023/10/23 08:57:00;;;;;;;10.07;3.65;;;;;;;12.83;92.76;100779.22;5075633;28;20027;-67
2023/10/23 08:59:25;;;;;;;6.15;3.80;;;;;;;12.89;92.84;100783.13;5108856;28;20044;-68
2023/10/23 09:01:51;;;;;;;8.77;3.78;;;;;;;12.84;92.60;100785.38;5092295;28;20028;-68
2023/10/23 09:04:17;;;;;;;8.45;3.15;;;;;;;12.90;91.57;100783.91;5109164;28;20030;-69
2023/10/23 09:06:43;;;;;;;6.90;3.47;;;;;;;12.82;91.55;100780.34;5109622;28;20034;-68
2023/10/23 09:09:09;;;;;;;5.30;2.80;;;;;;;12.75;91.79;100776.75;5109511;28;20047;-67
2023/10/23 09:11:48;;;;;;;5.22;3.10;;;;;;;12.63;92.54;100775.84;5092092;28;20411;-67
2023/10/23 09:14:28;;;;;;;10.77;3.92;;;;;;;12.67;92.66;100781.28;5108162;28;20040;-68
2023/10/23 09:16:57;;;;;;;6.53;3.88;;;;;;;12.67;93.77;100787.50;5091592;28;20038;-67
2023/10/23 09:19:32;;;;;;;6.45;3.30;;;;;;;12.75;94.20;100776.75;5070418;28;20070;-67
2023/10/23 09:21:58;;;;;;;8.50;3.70;;;;;;;12.98;93.58;100767.41;5107477;28;20036;-67
2023/10/23 09:24:24;;;;;;;7.63;3.60;;;;;;;13.03;93.27;100783.34;5105634;28;20031;-68
2023/10/23 09:26:50;;;;;;;9.27;3.47;;;;;;;13.17;91.02;100770.00;5109162;28;20040;-66
2023/10/23 09:29:24;;;;;;;6.10;3.35;;;;;;;13.18;91.57;100779.66;5110205;28;20084;-66
2023/10/23 09:31:50;;;;;;;6.32;3.17;;;;;;;13.23;91.77;100775.84;5108812;28;20032;-66
2023/10/23 09:34:21;;;;;;;7.13;3.72;;;;;;;13.25;92.37;100787.09;5110845;28;20088;-67
2023/10/23 09:36:50;;;;;;;9.10;3.55;;;;;;;13.38;92.21;100777.56;5091994;28;20061;-67
2023/10/23 09:39:16;;;;;;;8.48;3.05;;;;;;;13.62;92.27;100773.56;5096068;28;20026;-68
2023/10/23 09:41:42;;;;;;;4.65;3.03;;;;;;;13.83;90.00;100771.06;5112243;28;20031;-68
2023/10/23 09:44:09;;;;;;;6.60;3.88;;;;;;;13.81;90.10;100776.06;5114748;28;20044;-68
2023/10/23 09:46:38;;;;;;;5.72;3.28;;;;;;;13.95;89.17;100779.69;5095997;28;20028;-68
2023/10/23 09:49:06;;;;;;;11.82;3.58;;;;;;;14.01;89.54;100778.19;5114481;28;20028;-68
2023/10/23 09:51:41;;;;;;;5.93;3.35;;;;;;;14.11;89.48;100780.19;5106074;28;20036;-68
2023/10/23 09:54:10;;;;;;;7.75;3.45;;;;;;;14.16;88.96;100779.06;5113785;28;20063;-69
2023/10/23 09:56:38;;;;;;;12.07;3.45;;;;;;;14.04;88.86;100788.25;5111295;28;20031;-67
2023/10/23 09:59:07;;;;;;;7.03;3.58;;;;;;;14.15;88.63;100791.06;5114138;28;20081;-68
2023/10/23 10:01:39;;;;;;;5.97;3.33;;;;;;;14.18;88.48;100798.44;5111662;28;20063;-68
2023/10/23 10:04:13;;;;;;;7.35;3.50;;;;;;;14.19;89.15;100789.13;5114387;28;20118;-66
2023/10/23 10:06:46;;;;;;;6.82;3.42;;;;;;;14.27;89.23;100797.00;5111833;28;20036;-67
2023/10/23 10:09:13;;;;;;;7.85;3.47;;;;;;;14.33;88.78;100794.69;5095717;28;20039;-67
2023/10/23 10:11:43;;;;;;;6.60;3.45;;;;;;;14.46;87.47;100793.25;5095325;28;20024;-67
2023/10/23 10:14:09;;;;;;;6.95;3.50;;;;;;;14.37;87.66;100790.09;5113597;28;20019;-67
2023/10/23 10:16:36;;;;;;;8.88;4.03;;;;;;;14.34;87.85;100788.91;5113266;28;20508;-67
2023/10/23 10:19:02;;;;;;;6.75;3.20;;;;;;;14.30;88.93;100796.22;5110967;28;20026;-67
2023/10/23 10:21:31;;;;;;;6.22;3.55;;;;;;;14.42;88.65;100792.44;5109911;28;20131;-68
2023/10/23 10:23:59;;;;;;;7.00;3.45;;;;;;;14.33;89.36;100792.78;5104382;28;20038;-67
2023/10/23 10:26:25;;;;;;;10.18;4.40;;;;;;;14.44;89.00;100796.34;5092862;28;20520;-67
2023/10/23 10:28:53;;;;;;;7.32;3.85;;;;;;;14.55;88.80;100795.63;5111630;28;20019;-67
2023/10/23 10:31:21;;;;;;;9.77;4.05;;;;;;;14.40;88.88;100798.25;5110320;28;20069;-69
2023/10/23 10:33:46;;;;;;;7.68;4.30;;;;;;;14.58;88.68;100794.88;5092841;28;20039;-70
2023/10/23 10:36:12;;;;;;;10.32;4.72;;;;;;;14.65;88.33;100786.78;5112775;28;20040;-69
2023/10/23 10:38:38;;;;;;;10.60;4.18;;;;;;;14.54;88.72;100783.25;5094190;28;20089;-69
2023/10/23 10:41:04;;;;;;;10.00;4.95;;;;;;;14.62;89.66;100785.59;5113116;28;20031;-67
2023/10/23 10:43:34;;;;;;;10.13;5.00;;;;;;;14.61;89.88;100786.78;5089438;28;20031;-67
2023/10/23 10:46:04;;;;;;;10.05;4.75;;;;;;;14.84;89.21;100786.50;5109543;28;20038;-69
2023/10/23 10:48:48;;;;;;;9.48;4.95;;;;;;;14.93;89.87;100790.44;5092132;28;20509;-66
2023/10/23 10:51:21;;;;;;;10.07;5.07;;;;;;;14.98;89.61;100776.50;5091706;28;20465;-66
2023/10/23 10:53:48;;;;;;;11.23;5.20;;;;;;;15.12;89.47;100770.34;5112333;28;20381;-67
2023/10/23 10:56:16;;;;;;;5.85;3.55;;;;;;;15.24;89.47;100778.16;5091639;28;20043;-67
2023/10/23 10:58:43;;;;;;;8.85;4.68;;;;;;;15.27;87.76;100766.53;5094266;28;20063;-68
2023/10/23 11:01:09;;;;;;;7.65;4.38;;;;;;;15.19;88.28;100770.38;5111705;28;20507;-68
2023/10/23 11:03:36;;;;;;;6.75;3.72;;;;;;;15.25;88.65;100763.44;5112827;28;20043;-70
2023/10/23 11:06:02;;;;;;;9.75;4.50;;;;;;;15.39;88.13;100766.94;5084410;28;20051;-67
2023/10/23 11:08:31;;;;;;;9.93;4.50;;;;;;;15.40;88.23;100759.59;5112515;28;20039;-67
2023/10/23 11:10:57;;;;;;;6.72;3.88;;;;;;;15.50;88.63;100758.88;5111847;28;20027;-67
2023/10/23 11:13:23;;;;;;;7.45;4.32;;;;;;;15.53;87.29;100762.75;5094572;28;20036;-67
2023/10/23 11:15:54;;;;;;;8.98;3.92;;;;;;;15.59;87.40;100764.69;5111424;28;20117;-68
2023/10/23 11:18:22;;;;;;;7.93;3.93;;;;;;;15.72;85.88;100765.88;5108910;28;20038;-67
2023/10/23 11:20:48;;;;;;;8.52;4.78;;;;;;;15.67;86.14;100758.13;5092487;28;20304;-67